sensor_id;sensor_type;location;lat;lon;timestamp;pressure;altitude;pressure_sealevel;temperature;humidity
21760;BME280;11041;50.854;20.580;2023-02-17T00:32:35;99208.97;;;-2.07;90.99
21760;BME280;11041;50.854;20.580;2023-02-17T00:35:02;99190.41;;;-2.15;90.74
21760;BME280;11041;50.854;20.580;2023-02-17T00:37:28;99192.44;;;-2.10;90.59
21760;BME280;11041;50.854;20.580;2023-02-17T00:39:55;99203.16;;;-2.04;90.65
21760;BME280;11041;50.854;20.580;2023-02-17T00:42:21;99168.44;;;-2.12;91.26
21760;BME280;11041;50.854;20.580;2023-02-17T00:44:48;99158.31;;;-2.17;90.87
21760;BME280;11041;50.854;20.580;2023-02-17T00:47:14;99177.22;;;-1.98;91.32
21760;BME280;11041;50.854;20.580;2023-02-17T00:49:41;99187.09;;;-1.92;92.25
21760;BME280;11041;50.854;20.580;2023-02-17T00:52:07;99160.91;;;-2.03;92.27
21760;BME280;11041;50.854;20.580;2023-02-17T00:54:34;99175.06;;;-1.89;91.62
21760;BME280;11041;50.854;20.580;2023-02-17T00:57:00;99175.72;;;-1.94;91.41
21760;BME280;11041;50.854;20.580;2023-02-17T00:59:27;99171.16;;;-1.94;91.00
21760;BME280;11041;50.854;20.580;2023-02-17T01:01:53;99142.72;;;-2.08;91.23
21760;BME280;11041;50.854;20.580;2023-02-17T01:04:20;99163.28;;;-1.95;91.42
21760;BME280;11041;50.854;20.580;2023-02-17T01:06:47;99157.69;;;-1.94;91.13
21760;BME280;11041;50.854;20.580;2023-02-17T01:09:14;99134.34;;;-2.18;89.76
21760;BME280;11041;50.854;20.580;2023-02-17T01:11:41;99114.59;;;-2.55;89.85
21760;BME280;11041;50.854;20.580;2023-02-17T01:14:11;99135.25;;;-2.49;90.26
21760;BME280;11041;50.854;20.580;2023-02-17T01:16:43;99145.41;;;-2.51;90.01
21760;BME280;11041;50.854;20.580;2023-02-17T01:19:17;99135.16;;;-2.61;90.83
21760;BME280;11041;50.854;20.580;2023-02-17T01:21:44;99112.91;;;-2.75;91.35
21760;BME280;11041;50.854;20.580;2023-02-17T01:24:12;99111.44;;;-2.71;91.42
21760;BME280;11041;50.854;20.580;2023-02-17T01:26:39;99128.72;;;-2.60;91.82
21760;BME280;11041;50.854;20.580;2023-02-17T01:29:06;99140.69;;;-2.56;91.96
21760;BME280;11041;50.854;20.580;2023-02-17T01:31:33;99128.81;;;-2.48;91.70
21760;BME280;11041;50.854;20.580;2023-02-17T01:34:03;99117.09;;;-2.54;91.31
21760;BME280;11041;50.854;20.580;2023-02-17T01:36:30;99125.72;;;-2.45;91.80
21760;BME280;11041;50.854;20.580;2023-02-17T01:38:56;99096.97;;;-2.51;92.14
21760;BME280;11041;50.854;20.580;2023-02-17T01:41:25;99122.22;;;-2.27;91.72
21760;BME280;11041;50.854;20.580;2023-02-17T01:46:40;99114.44;;;-2.17;91.20
21760;BME280;11041;50.854;20.580;2023-02-17T01:49:23;99111.44;;;-2.27;91.20
21760;BME280;11041;50.854;20.580;2023-02-17T01:52:22;99104.03;;;-2.32;90.83
21760;BME280;11041;50.854;20.580;2023-02-17T01:55:01;99102.25;;;-2.38;90.72
21760;BME280;11041;50.854;20.580;2023-02-17T01:57:32;99099.31;;;-2.37;90.95
21760;BME280;11041;50.854;20.580;2023-02-17T02:00:00;99130.81;;;-2.19;91.87
21760;BME280;11041;50.854;20.580;2023-02-17T02:02:27;99131.78;;;-2.13;91.81
21760;BME280;11041;50.854;20.580;2023-02-17T02:04:56;99116.47;;;-2.12;91.66
21760;BME280;11041;50.854;20.580;2023-02-17T02:07:31;99101.38;;;-2.13;91.18
21760;BME280;11041;50.854;20.580;2023-02-17T02:09:59;99102.72;;;-2.04;91.61
21760;BME280;11041;50.854;20.580;2023-02-17T02:12:30;99108.88;;;-1.85;91.62
21760;BME280;11041;50.854;20.580;2023-02-17T02:15:03;99114.44;;;-1.80;91.60
21760;BME280;11041;50.854;20.580;2023-02-17T02:29:52;99116.81;;;-1.54;91.30
21760;BME280;11041;50.854;20.580;2023-02-17T02:32:50;99083.06;;;-1.75;91.79
21760;BME280;11041;50.854;20.580;2023-02-17T02:41:44;99097.09;;;-1.84;91.56
21760;BME280;11041;50.854;20.580;2023-02-17T02:44:17;99103.34;;;-1.72;91.33
21760;BME280;11041;50.854;20.580;2023-02-17T02:46:44;99088.06;;;-1.90;91.31
21760;BME280;11041;50.854;20.580;2023-02-17T02:49:21;99104.72;;;-1.81;91.79
21760;BME280;11041;50.854;20.580;2023-02-17T02:52:18;99102.97;;;-1.76;91.63
21760;BME280;11041;50.854;20.580;2023-02-17T02:55:13;99107.53;;;-1.76;91.77
21760;BME280;11041;50.854;20.580;2023-02-17T02:58:21;99103.28;;;-1.84;91.02
21760;BME280;11041;50.854;20.580;2023-02-17T03:01:18;99079.72;;;-2.07;91.08
21760;BME280;11041;50.854;20.580;2023-02-17T03:04:25;99103.22;;;-1.96;91.46
21760;BME280;11041;50.854;20.580;2023-02-17T03:07:07;99081.69;;;-2.14;91.87
21760;BME280;11041;50.854;20.580;2023-02-17T03:09:37;99083.47;;;-2.08;91.80
21760;BME280;11041;50.854;20.580;2023-02-17T03:12:05;99078.09;;;-2.08;92.24
21760;BME280;11041;50.854;20.580;2023-02-17T03:14:37;99081.38;;;-2.06;91.79
21760;BME280;11041;50.854;20.580;2023-02-17T03:17:04;99072.72;;;-2.08;91.20
21760;BME280;11041;50.854;20.580;2023-02-17T03:19:31;99101.59;;;-1.97;91.47
21760;BME280;11041;50.854;20.580;2023-02-17T03:24:36;99086.84;;;-2.12;91.24
21760;BME280;11041;50.854;20.580;2023-02-17T03:27:03;99110.09;;;-2.00;91.54
21760;BME280;11041;50.854;20.580;2023-02-17T03:29:29;99080.50;;;-2.18;91.86
21760;BME280;11041;50.854;20.580;2023-02-17T03:31:56;99104.34;;;-2.03;92.24
21760;BME280;11041;50.854;20.580;2023-02-17T03:34:23;99098.75;;;-2.02;91.59
21760;BME280;11041;50.854;20.580;2023-02-17T03:36:50;99098.44;;;-1.94;92.33
21760;BME280;11041;50.854;20.580;2023-02-17T03:39:16;99081.75;;;-2.02;91.74
21760;BME280;11041;50.854;20.580;2023-02-17T03:41:43;99097.75;;;-1.89;92.41
21760;BME280;11041;50.854;20.580;2023-02-17T03:44:09;99102.63;;;-1.79;91.65
21760;BME280;11041;50.854;20.580;2023-02-17T03:46:38;99101.72;;;-1.73;92.37
21760;BME280;11041;50.854;20.580;2023-02-17T03:49:05;99066.41;;;-1.83;91.55
21760;BME280;11041;50.854;20.580;2023-02-17T03:51:32;99064.09;;;-1.80;91.41
21760;BME280;11041;50.854;20.580;2023-02-17T03:53:58;99053.38;;;-1.86;90.82
21760;BME280;11041;50.854;20.580;2023-02-17T03:56:25;99078.59;;;-1.81;91.01
21760;BME280;11041;50.854;20.580;2023-02-17T03:58:51;99072.91;;;-1.91;91.51
21760;BME280;11041;50.854;20.580;2023-02-17T04:01:18;99098.44;;;-1.94;91.65
21760;BME280;11041;50.854;20.580;2023-02-17T04:03:45;99069.66;;;-2.11;91.47
21760;BME280;11041;50.854;20.580;2023-02-17T04:06:11;99074.94;;;-2.05;92.14
21760;BME280;11041;50.854;20.580;2023-02-17T04:08:39;99095.28;;;-1.90;92.00
21760;BME280;11041;50.854;20.580;2023-02-17T04:11:08;99096.47;;;-1.86;92.28
21760;BME280;11041;50.854;20.580;2023-02-17T04:13:36;99075.09;;;-2.00;92.35
21760;BME280;11041;50.854;20.580;2023-02-17T04:16:04;99099.31;;;-1.81;92.93
21760;BME280;11041;50.854;20.580;2023-02-17T04:18:32;99088.09;;;-1.78;93.09
21760;BME280;11041;50.854;20.580;2023-02-17T04:20:59;99086.97;;;-1.70;92.99
21760;BME280;11041;50.854;20.580;2023-02-17T04:23:26;99068.13;;;-1.70;92.72
21760;BME280;11041;50.854;20.580;2023-02-17T04:25:53;99090.00;;;-1.48;92.32
21760;BME280;11041;50.854;20.580;2023-02-17T04:28:20;99087.44;;;-1.43;92.41
21760;BME280;11041;50.854;20.580;2023-02-17T04:30:49;99095.44;;;-1.37;92.04
21760;BME280;11041;50.854;20.580;2023-02-17T04:33:17;99098.59;;;-1.28;91.84
21760;BME280;11041;50.854;20.580;2023-02-17T04:35:44;99091.94;;;-1.25;91.92
21760;BME280;11041;50.854;20.580;2023-02-17T04:38:12;99086.09;;;-1.22;91.67
21760;BME280;11041;50.854;20.580;2023-02-17T04:40:38;99085.13;;;-1.28;91.35
21760;BME280;11041;50.854;20.580;2023-02-17T04:43:05;99082.56;;;-1.23;91.78
21760;BME280;11041;50.854;20.580;2023-02-17T04:45:33;99078.22;;;-1.24;91.66
21760;BME280;11041;50.854;20.580;2023-02-17T04:47:59;99072.72;;;-1.29;91.72
21760;BME280;11041;50.854;20.580;2023-02-17T04:50:26;99042.50;;;-1.50;92.09
21760;BME280;11041;50.854;20.580;2023-02-17T04:52:53;99043.63;;;-1.39;92.25
21760;BME280;11041;50.854;20.580;2023-02-17T04:55:19;99062.41;;;-1.20;92.76
21760;BME280;11041;50.854;20.580;2023-02-17T04:57:46;99056.31;;;-1.16;93.20
21760;BME280;11041;50.854;20.580;2023-02-17T05:00:13;99038.84;;;-1.13;92.49
21760;BME280;11041;50.854;20.580;2023-02-17T05:02:39;99059.88;;;-0.92;92.52
21760;BME280;11041;50.854;20.580;2023-02-17T05:05:06;99036.78;;;-0.99;92.21
21760;BME280;11041;50.854;20.580;2023-02-17T05:07:33;99049.78;;;-0.84;92.07
21760;BME280;11041;50.854;20.580;2023-02-17T05:09:59;99055.09;;;-0.78;91.39
21760;BME280;11041;50.854;20.580;2023-02-17T05:12:26;99054.38;;;-0.85;91.59
21760;BME280;11041;50.854;20.580;2023-02-17T05:14:52;99042.97;;;-0.99;91.63
21760;BME280;11041;50.854;20.580;2023-02-17T05:17:19;99061.06;;;-0.88;91.64
21760;BME280;11041;50.854;20.580;2023-02-17T05:19:45;99051.78;;;-0.92;92.08
21760;BME280;11041;50.854;20.580;2023-02-17T05:22:12;99025.97;;;-0.99;91.99
21760;BME280;11041;50.854;20.580;2023-02-17T05:24:38;99052.06;;;-0.81;92.37
21760;BME280;11041;50.854;20.580;2023-02-17T05:27:05;99042.88;;;-0.80;92.45
21760;BME280;11041;50.854;20.580;2023-02-17T05:29:31;99035.97;;;-0.76;91.69
21760;BME280;11041;50.854;20.580;2023-02-17T05:31:58;99044.19;;;-0.71;91.83
21760;BME280;11041;50.854;20.580;2023-02-17T05:34:24;99044.19;;;-0.71;91.90
21760;BME280;11041;50.854;20.580;2023-02-17T05:36:51;99025.41;;;-0.78;91.83
21760;BME280;11041;50.854;20.580;2023-02-17T05:39:18;99020.94;;;-0.72;91.77
21760;BME280;11041;50.854;20.580;2023-02-17T05:41:45;99020.22;;;-0.68;92.34
21760;BME280;11041;50.854;20.580;2023-02-17T05:44:11;99024.00;;;-0.57;92.09
21760;BME280;11041;50.854;20.580;2023-02-17T05:46:38;99016.03;;;-0.63;91.65
21760;BME280;11041;50.854;20.580;2023-02-17T05:49:05;99033.84;;;-0.51;91.64
21760;BME280;11041;50.854;20.580;2023-02-17T05:51:31;99024.69;;;-0.50;92.06
21760;BME280;11041;50.854;20.580;2023-02-17T05:53:59;99018.81;;;-0.47;92.02
21760;BME280;11041;50.854;20.580;2023-02-17T05:56:25;99024.59;;;-0.43;91.42
21760;BME280;11041;50.854;20.580;2023-02-17T05:58:52;99016.34;;;-0.48;91.53
21760;BME280;11041;50.854;20.580;2023-02-17T06:01:18;99011.19;;;-0.50;92.05
21760;BME280;11041;50.854;20.580;2023-02-17T06:03:45;99019.03;;;-0.48;92.19
21760;BME280;11041;50.854;20.580;2023-02-17T06:06:12;99008.81;;;-0.34;92.27
21760;BME280;11041;50.854;20.580;2023-02-17T06:08:39;99023.13;;;-0.34;92.33
21760;BME280;11041;50.854;20.580;2023-02-17T06:11:06;99019.50;;;-0.28;92.03
21760;BME280;11041;50.854;20.580;2023-02-17T06:13:32;98995.00;;;-0.38;91.88
21760;BME280;11041;50.854;20.580;2023-02-17T06:15:59;99010.31;;;-0.27;92.64
21760;BME280;11041;50.854;20.580;2023-02-17T06:18:25;99000.59;;;-0.28;92.53
21760;BME280;11041;50.854;20.580;2023-02-17T06:20:55;98995.28;;;-0.23;92.73
21760;BME280;11041;50.854;20.580;2023-02-17T06:23:26;98992.59;;;-0.23;92.76
21760;BME280;11041;50.854;20.580;2023-02-17T06:25:53;98980.88;;;-0.28;92.49
21760;BME280;11041;50.854;20.580;2023-02-17T06:28:20;98997.63;;;-0.14;92.49
21760;BME280;11041;50.854;20.580;2023-02-17T06:30:47;98977.91;;;-0.27;92.92
21760;BME280;11041;50.854;20.580;2023-02-17T06:33:14;98978.06;;;-0.22;92.90
21760;BME280;11041;50.854;20.580;2023-02-17T06:35:40;98999.75;;;-0.16;92.59
21760;BME280;11041;50.854;20.580;2023-02-17T06:38:07;99010.75;;;-0.06;93.09
21760;BME280;11041;50.854;20.580;2023-02-17T06:40:58;98992.25;;;-0.14;92.99
21760;BME280;11041;50.854;20.580;2023-02-17T06:43:49;98993.03;;;-0.02;93.29
21760;BME280;11041;50.854;20.580;2023-02-17T07:36:35;98961.28;;;2.06;90.87
21760;BME280;11041;50.854;20.580;2023-02-17T07:39:02;98966.78;;;2.39;88.02
21760;BME280;11041;50.854;20.580;2023-02-17T07:41:29;98948.41;;;2.46;87.99
21760;BME280;11041;50.854;20.580;2023-02-17T07:43:58;98955.38;;;2.69;86.69
21760;BME280;11041;50.854;20.580;2023-02-17T07:46:26;98968.09;;;3.01;85.00
21760;BME280;11041;50.854;20.580;2023-02-17T07:48:52;98963.34;;;3.18;83.99
21760;BME280;11041;50.854;20.580;2023-02-17T07:51:21;98948.16;;;3.22;84.03
21760;BME280;11041;50.854;20.580;2023-02-17T07:53:49;98950.69;;;3.39;82.14
21760;BME280;11041;50.854;20.580;2023-02-17T07:56:19;98962.47;;;3.55;83.22
21760;BME280;11041;50.854;20.580;2023-02-17T07:58:47;98965.50;;;3.63;82.17
21760;BME280;11041;50.854;20.580;2023-02-17T08:01:21;98941.31;;;3.62;81.97
21760;BME280;11041;50.854;20.580;2023-02-17T08:03:50;98954.38;;;3.70;81.80
21760;BME280;11041;50.854;20.580;2023-02-17T08:06:22;98966.44;;;3.90;81.71
21760;BME280;11041;50.854;20.580;2023-02-17T08:08:51;98965.66;;;3.99;80.65
21760;BME280;11041;50.854;20.580;2023-02-17T08:11:38;98964.03;;;4.09;80.12
21760;BME280;11041;50.854;20.580;2023-02-17T08:14:28;98938.75;;;4.03;80.41
21760;BME280;11041;50.854;20.580;2023-02-17T08:16:56;98960.56;;;4.29;78.71
21760;BME280;11041;50.854;20.580;2023-02-17T08:19:23;98940.69;;;4.28;78.02
21760;BME280;11041;50.854;20.580;2023-02-17T08:21:52;98957.59;;;4.40;77.64
21760;BME280;11041;50.854;20.580;2023-02-17T08:24:18;98951.06;;;4.41;77.94
21760;BME280;11041;50.854;20.580;2023-02-17T08:26:47;98948.09;;;4.48;77.46
21760;BME280;11041;50.854;20.580;2023-02-17T08:29:14;98959.78;;;4.54;77.15
21760;BME280;11041;50.854;20.580;2023-02-17T08:31:41;98951.91;;;4.57;76.96
21760;BME280;11041;50.854;20.580;2023-02-17T08:34:11;98958.16;;;4.58;77.37
21760;BME280;11041;50.854;20.580;2023-02-17T08:36:39;98959.22;;;4.52;77.29
21760;BME280;11041;50.854;20.580;2023-02-17T08:39:14;98960.59;;;4.49;77.53
21760;BME280;11041;50.854;20.580;2023-02-17T08:41:43;98922.50;;;4.29;78.08
21760;BME280;11041;50.854;20.580;2023-02-17T08:44:16;98964.13;;;4.49;78.46
21760;BME280;11041;50.854;20.580;2023-02-17T08:46:44;98962.50;;;4.48;78.27
21760;BME280;11041;50.854;20.580;2023-02-17T08:49:15;98965.22;;;4.54;78.57
21760;BME280;11041;50.854;20.580;2023-02-17T08:51:42;98952.16;;;4.51;78.72
21760;BME280;11041;50.854;20.580;2023-02-17T08:54:10;98937.75;;;4.45;79.68
21760;BME280;11041;50.854;20.580;2023-02-17T08:56:39;98937.19;;;4.48;79.61
21760;BME280;11041;50.854;20.580;2023-02-17T08:59:08;98954.59;;;4.52;80.13
21760;BME280;11041;50.854;20.580;2023-02-17T09:01:36;98949.72;;;4.59;80.61
21760;BME280;11041;50.854;20.580;2023-02-17T09:04:05;98939.38;;;4.56;81.55
21760;BME280;11041;50.854;20.580;2023-02-17T09:06:44;98918.69;;;4.50;81.29
21760;BME280;11041;50.854;20.580;2023-02-17T09:09:14;98937.19;;;4.68;81.44
21760;BME280;11041;50.854;20.580;2023-02-17T09:11:42;98915.16;;;4.70;81.05
21760;BME280;11041;50.854;20.580;2023-02-17T09:14:08;98914.91;;;4.77;80.97
21760;BME280;11041;50.854;20.580;2023-02-17T09:16:36;98933.13;;;4.86;82.03
21760;BME280;11041;50.854;20.580;2023-02-17T09:19:03;98919.22;;;4.88;82.32
21760;BME280;11041;50.854;20.580;2023-02-17T09:21:30;98889.81;;;4.85;81.92
21760;BME280;11041;50.854;20.580;2023-02-17T09:23:57;98915.13;;;5.06;82.17
21760;BME280;11041;50.854;20.580;2023-02-17T09:26:24;98892.22;;;5.12;81.15
21760;BME280;11041;50.854;20.580;2023-02-17T09:28:50;98901.16;;;5.33;79.75
21760;BME280;11041;50.854;20.580;2023-02-17T09:31:21;98894.91;;;5.32;80.07
21760;BME280;11041;50.854;20.580;2023-02-17T09:33:49;98904.91;;;5.58;77.89
21760;BME280;11041;50.854;20.580;2023-02-17T09:36:23;98914.97;;;5.62;78.66
21760;BME280;11041;50.854;20.580;2023-02-17T09:38:50;98893.19;;;5.57;78.11
21760;BME280;11041;50.854;20.580;2023-02-17T09:41:45;98920.88;;;5.80;77.41
21760;BME280;11041;50.854;20.580;2023-02-17T09:44:34;98912.44;;;5.81;77.24
21760;BME280;11041;50.854;20.580;2023-02-17T09:47:15;98928.50;;;5.88;76.31
21760;BME280;11041;50.854;20.580;2023-02-17T09:49:52;98928.53;;;5.83;76.59
21760;BME280;11041;50.854;20.580;2023-02-17T09:52:54;98920.03;;;5.84;77.50
21760;BME280;11041;50.854;20.580;2023-02-17T09:55:34;98909.97;;;5.80;76.93
21760;BME280;11041;50.854;20.580;2023-02-17T09:58:35;98902.06;;;5.83;77.08
21760;BME280;11041;50.854;20.580;2023-02-17T10:01:15;98902.88;;;5.84;77.16
21760;BME280;11041;50.854;20.580;2023-02-17T10:03:54;98907.25;;;5.85;76.74
21760;BME280;11041;50.854;20.580;2023-02-17T10:06:33;98889.31;;;5.68;77.47
21760;BME280;11041;50.854;20.580;2023-02-17T10:09:29;98902.34;;;5.82;77.63
21760;BME280;11041;50.854;20.580;2023-02-17T10:12:17;98892.59;;;5.70;77.80
21760;BME280;11041;50.854;20.580;2023-02-17T10:14:55;98892.88;;;5.69;78.43
21760;BME280;11041;50.854;20.580;2023-02-17T10:20:17;98879.22;;;5.69;80.70
21760;BME280;11041;50.854;20.580;2023-02-17T10:22:55;98863.44;;;5.66;82.48
21760;BME280;11041;50.854;20.580;2023-02-17T10:28:46;98873.53;;;5.65;83.68
21760;BME280;11041;50.854;20.580;2023-02-17T10:38:05;98855.63;;;5.39;86.42
21760;BME280;11041;50.854;20.580;2023-02-17T10:40:26;98861.66;;;5.36;86.78
21760;BME280;11041;50.854;20.580;2023-02-17T10:42:59;98840.38;;;5.38;87.04
21760;BME280;11041;50.854;20.580;2023-02-17T10:45:40;98851.53;;;5.46;87.87
21760;BME280;11041;50.854;20.580;2023-02-17T10:48:14;98851.75;;;5.55;87.36
21760;BME280;11041;50.854;20.580;2023-02-17T10:50:43;98828.63;;;5.47;87.30
21760;BME280;11041;50.854;20.580;2023-02-17T10:53:20;98821.81;;;5.50;86.46
21760;BME280;11041;50.854;20.580;2023-02-17T10:56:31;98830.75;;;5.61;86.66
21760;BME280;11041;50.854;20.580;2023-02-17T10:59:20;98834.00;;;5.63;87.16
21760;BME280;11041;50.854;20.580;2023-02-17T11:01:48;98801.06;;;5.54;86.70
21760;BME280;11041;50.854;20.580;2023-02-17T11:04:14;98808.13;;;5.60;86.02
21760;BME280;11041;50.854;20.580;2023-02-17T11:06:53;98786.84;;;5.62;85.67
21760;BME280;11041;50.854;20.580;2023-02-17T11:09:27;98804.22;;;5.76;85.52
21760;BME280;11041;50.854;20.580;2023-02-17T11:12:10;98791.59;;;5.86;84.51
21760;BME280;11041;50.854;20.580;2023-02-17T11:14:48;98791.56;;;5.96;85.12
21760;BME280;11041;50.854;20.580;2023-02-17T11:17:38;98789.31;;;6.03;84.56
21760;BME280;11041;50.854;20.580;2023-02-17T11:20:30;98766.47;;;5.99;84.58
21760;BME280;11041;50.854;20.580;2023-02-17T11:23:21;98771.66;;;5.95;84.47
21760;BME280;11041;50.854;20.580;2023-02-17T11:26:15;98763.50;;;5.90;85.33
21760;BME280;11041;50.854;20.580;2023-02-17T11:28:42;98775.19;;;5.96;87.03
21760;BME280;11041;50.854;20.580;2023-02-17T11:31:30;98771.94;;;5.94;87.65
21760;BME280;11041;50.854;20.580;2023-02-17T11:33:56;98770.56;;;5.91;88.29
21760;BME280;11041;50.854;20.580;2023-02-17T12:20:13;98682.53;;;5.86;93.67
21760;BME280;11041;50.854;20.580;2023-02-17T12:23:04;98677.84;;;5.91;93.35
21760;BME280;11041;50.854;20.580;2023-02-17T12:25:49;98678.94;;;5.95;93.22
21760;BME280;11041;50.854;20.580;2023-02-17T12:34:41;98662.28;;;5.97;92.05
21760;BME280;11041;50.854;20.580;2023-02-17T12:37:44;98655.13;;;6.01;89.31
21760;BME280;11041;50.854;20.580;2023-02-17T12:40:36;98659.78;;;6.01;89.08
21760;BME280;11041;50.854;20.580;2023-02-17T12:43:43;98647.22;;;6.05;89.05
21760;BME280;11041;50.854;20.580;2023-02-17T12:46:43;98641.97;;;6.08;88.76
21760;BME280;11041;50.854;20.580;2023-02-17T12:49:18;98637.84;;;6.11;87.54
21760;BME280;11041;50.854;20.580;2023-02-17T12:51:58;98638.09;;;6.14;87.21
21760;BME280;11041;50.854;20.580;2023-02-17T12:59:58;98606.13;;;6.20;86.43
21760;BME280;11041;50.854;20.580;2023-02-17T13:02:25;98614.25;;;6.25;85.85
21760;BME280;11041;50.854;20.580;2023-02-17T13:04:57;98615.81;;;6.31;86.03
21760;BME280;11041;50.854;20.580;2023-02-17T13:10:32;98609.50;;;6.36;84.48
21760;BME280;11041;50.854;20.580;2023-02-17T13:13:10;98601.53;;;6.39;84.93
21760;BME280;11041;50.854;20.580;2023-02-17T13:15:43;98587.88;;;6.39;84.81
21760;BME280;11041;50.854;20.580;2023-02-17T13:18:36;98594.47;;;6.38;84.42
21760;BME280;11041;50.854;20.580;2023-02-17T13:24:13;98587.88;;;6.39;85.13
21760;BME280;11041;50.854;20.580;2023-02-17T13:26:43;98582.41;;;6.39;85.25
21760;BME280;11041;50.854;20.580;2023-02-17T13:31:58;98562.66;;;6.29;86.05
21760;BME280;11041;50.854;20.580;2023-02-17T13:34:44;98565.66;;;6.27;86.49
21760;BME280;11041;50.854;20.580;2023-02-17T13:37:24;98565.66;;;6.27;86.60
21760;BME280;11041;50.854;20.580;2023-02-17T13:39:52;98556.91;;;6.30;86.31
21760;BME280;11041;50.854;20.580;2023-02-17T13:42:33;98565.97;;;6.26;86.76
21760;BME280;11041;50.854;20.580;2023-02-17T13:45:01;98563.16;;;6.31;86.98
21760;BME280;11041;50.854;20.580;2023-02-17T13:47:35;98543.59;;;6.24;87.31
21760;BME280;11041;50.854;20.580;2023-02-17T13:50:02;98543.59;;;6.24;87.03
21760;BME280;11041;50.854;20.580;2023-02-17T13:52:31;98545.28;;;6.19;87.44
21760;BME280;11041;50.854;20.580;2023-02-17T13:55:03;98545.81;;;6.22;87.23
21760;BME280;11041;50.854;20.580;2023-02-17T13:57:35;98548.53;;;6.22;87.15
21760;BME280;11041;50.854;20.580;2023-02-17T14:02:50;98539.25;;;6.23;87.45
21760;BME280;11041;50.854;20.580;2023-02-17T14:05:20;98528.97;;;6.14;87.73
21760;BME280;11041;50.854;20.580;2023-02-17T14:07:48;98530.84;;;6.19;87.00
21760;BME280;11041;50.854;20.580;2023-02-17T14:10:22;98527.06;;;6.15;87.04
21760;BME280;11041;50.854;20.580;2023-02-17T14:12:52;98524.00;;;6.22;86.24
21760;BME280;11041;50.854;20.580;2023-02-17T14:15:31;98513.13;;;6.16;86.31
21760;BME280;11041;50.854;20.580;2023-02-17T14:17:58;98515.97;;;6.30;85.80
21760;BME280;11041;50.854;20.580;2023-02-17T14:20:35;98498.03;;;6.24;85.81
21760;BME280;11041;50.854;20.580;2023-02-17T14:23:12;98510.56;;;6.25;85.46
21760;BME280;11041;50.854;20.580;2023-02-17T14:25:43;98499.19;;;6.18;85.54
21760;BME280;11041;50.854;20.580;2023-02-17T14:28:23;98479.88;;;6.14;85.36
21760;BME280;11041;50.854;20.580;2023-02-17T14:30:51;98504.38;;;6.19;85.48
21760;BME280;11041;50.854;20.580;2023-02-17T14:33:24;98494.03;;;6.16;85.64
21760;BME280;11041;50.854;20.580;2023-02-17T14:36:01;98485.16;;;6.06;85.99
21760;BME280;11041;50.854;20.580;2023-02-17T14:38:34;98488.59;;;6.16;85.98
21760;BME280;11041;50.854;20.580;2023-02-17T14:41:07;98482.81;;;6.18;86.06
21760;BME280;11041;50.854;20.580;2023-02-17T14:43:37;98482.09;;;6.12;86.51
21760;BME280;11041;50.854;20.580;2023-02-17T14:46:04;98475.22;;;6.15;86.50
21760;BME280;11041;50.854;20.580;2023-02-17T14:48:31;98457.66;;;6.02;86.47
21760;BME280;11041;50.854;20.580;2023-02-17T14:50:58;98465.78;;;6.07;86.34
21760;BME280;11041;50.854;20.580;2023-02-17T14:53:32;98474.63;;;6.18;86.58
21760;BME280;11041;50.854;20.580;2023-02-17T14:56:26;98475.16;;;6.20;86.51
21760;BME280;11041;50.854;20.580;2023-02-17T14:58:54;98467.84;;;6.15;86.79
21760;BME280;11041;50.854;20.580;2023-02-17T15:01:23;98455.41;;;6.09;86.52
21760;BME280;11041;50.854;20.580;2023-02-17T15:03:52;98446.03;;;6.15;86.68
21760;BME280;11041;50.854;20.580;2023-02-17T15:06:38;98438.97;;;6.14;86.90
21760;BME280;11041;50.854;20.580;2023-02-17T15:09:16;98436.81;;;6.11;87.34
21760;BME280;11041;50.854;20.580;2023-02-17T15:11:44;98436.75;;;6.16;87.30
21760;BME280;11041;50.854;20.580;2023-02-17T15:14:17;98417.41;;;6.13;87.57
21760;BME280;11041;50.854;20.580;2023-02-17T15:16:46;98418.19;;;6.18;88.28
21760;BME280;11041;50.854;20.580;2023-02-17T15:19:15;98429.97;;;6.14;89.36
21760;BME280;11041;50.854;20.580;2023-02-17T15:21:51;98420.47;;;6.11;90.36
21760;BME280;11041;50.854;20.580;2023-02-17T15:24:26;98409.91;;;6.05;91.45
21760;BME280;11041;50.854;20.580;2023-02-17T15:26:55;98392.75;;;5.80;91.86
21760;BME280;11041;50.854;20.580;2023-02-17T15:29:24;98395.69;;;5.84;92.89
21760;BME280;11041;50.854;20.580;2023-02-17T15:31:55;98395.09;;;5.87;93.59
21760;BME280;11041;50.854;20.580;2023-02-17T15:34:30;98387.31;;;5.80;93.93
21760;BME280;11041;50.854;20.580;2023-02-17T15:36:59;98392.81;;;5.75;94.63
21760;BME280;11041;50.854;20.580;2023-02-17T15:39:26;98384.19;;;5.68;94.84
21760;BME280;11041;50.854;20.580;2023-02-17T15:41:55;98388.06;;;5.62;95.79
21760;BME280;11041;50.854;20.580;2023-02-17T15:44:27;98388.88;;;5.62;95.85
21760;BME280;11041;50.854;20.580;2023-02-17T15:46:56;98377.50;;;5.55;96.28
21760;BME280;11041;50.854;20.580;2023-02-17T15:49:23;98367.22;;;5.52;97.16
21760;BME280;11041;50.854;20.580;2023-02-17T15:51:49;98344.56;;;5.32;97.01
21760;BME280;11041;50.854;20.580;2023-02-17T15:54:16;98348.25;;;5.42;97.42
21760;BME280;11041;50.854;20.580;2023-02-17T15:56:51;98357.25;;;5.42;97.69
21760;BME280;11041;50.854;20.580;2023-02-17T15:59:23;98352.13;;;5.36;97.74
21760;BME280;11041;50.854;20.580;2023-02-17T16:01:53;98343.38;;;5.39;98.06
21760;BME280;11041;50.854;20.580;2023-02-17T16:04:21;98340.19;;;5.31;98.19
21760;BME280;11041;50.854;20.580;2023-02-17T16:06:48;98327.81;;;5.20;98.50
21760;BME280;11041;50.854;20.580;2023-02-17T16:09:14;98321.59;;;5.15;99.08
21760;BME280;11041;50.854;20.580;2023-02-17T16:11:51;98348.78;;;5.20;99.37
21760;BME280;11041;50.854;20.580;2023-02-17T16:14:29;98331.16;;;5.12;99.95
21760;BME280;11041;50.854;20.580;2023-02-17T16:16:58;98344.75;;;5.17;99.58
21760;BME280;11041;50.854;20.580;2023-02-17T16:19:24;98330.94;;;5.08;100.00
21760;BME280;11041;50.854;20.580;2023-02-17T16:21:51;98317.06;;;5.05;100.00
21760;BME280;11041;50.854;20.580;2023-02-17T16:24:18;98329.25;;;5.12;100.00
21760;BME280;11041;50.854;20.580;2023-02-17T16:26:44;98319.25;;;5.08;100.00